sensor_id;sensor_type;location;lat;lon;timestamp;P1;durP1;ratioP1;P2;durP2;ratioP2
31438;SDS011;18062;48.872;9.220;2022-11-15T00:02:21;1.53;;;1.20;;
31438;SDS011;18062;48.872;9.220;2022-11-15T00:04:47;1.57;;;1.47;;
31438;SDS011;18062;48.872;9.220;2022-11-15T00:10:16;1.73;;;1.00;;
31438;SDS011;18062;48.872;9.220;2022-11-15T00:12:42;1.87;;;1.30;;
31438;SDS011;18062;48.872;9.220;2022-11-15T00:15:09;1.30;;;1.00;;
31438;SDS011;18062;48.872;9.220;2022-11-15T00:17:34;1.17;;;1.07;;
31438;SDS011;18062;48.872;9.220;2022-11-15T00:20:00;1.77;;;1.03;;
31438;SDS011;18062;48.872;9.220;2022-11-15T00:22:31;1.20;;;1.10;;
31438;SDS011;18062;48.872;9.220;2022-11-15T00:24:57;1.47;;;0.93;;
31438;SDS011;18062;48.872;9.220;2022-11-15T00:27:23;1.13;;;0.87;;
31438;SDS011;18062;48.872;9.220;2022-11-15T00:29:49;0.97;;;0.97;;
31438;SDS011;18062;48.872;9.220;2022-11-15T00:32:15;1.27;;;0.93;;
31438;SDS011;18062;48.872;9.220;2022-11-15T00:34:41;1.20;;;0.97;;
31438;SDS011;18062;48.872;9.220;2022-11-15T00:37:07;1.23;;;1.10;;
31438;SDS011;18062;48.872;9.220;2022-11-15T00:39:33;1.03;;;0.93;;
31438;SDS011;18062;48.872;9.220;2022-11-15T00:41:59;1.00;;;0.80;;
31438;SDS011;18062;48.872;9.220;2022-11-15T00:44:25;0.80;;;0.80;;
31438;SDS011;18062;48.872;9.220;2022-11-15T00:46:51;1.70;;;1.07;;
31438;SDS011;18062;48.872;9.220;2022-11-15T00:49:17;1.27;;;1.17;;
31438;SDS011;18062;48.872;9.220;2022-11-15T00:51:43;1.13;;;1.00;;
31438;SDS011;18062;48.872;9.220;2022-11-15T00:54:09;2.37;;;0.87;;
31438;SDS011;18062;48.872;9.220;2022-11-15T00:56:35;1.17;;;1.00;;
31438;SDS011;18062;48.872;9.220;2022-11-15T00:59:01;1.33;;;1.23;;
31438;SDS011;18062;48.872;9.220;2022-11-15T01:01:27;1.20;;;0.83;;
31438;SDS011;18062;48.872;9.220;2022-11-15T01:03:52;1.17;;;0.93;;
31438;SDS011;18062;48.872;9.220;2022-11-15T01:06:18;1.63;;;1.10;;
31438;SDS011;18062;48.872;9.220;2022-11-15T01:08:44;2.60;;;1.53;;
31438;SDS011;18062;48.872;9.220;2022-11-15T01:11:11;1.77;;;1.40;;
31438;SDS011;18062;48.872;9.220;2022-11-15T01:13:38;0.90;;;0.90;;
31438;SDS011;18062;48.872;9.220;2022-11-15T01:16:14;2.67;;;1.20;;
31438;SDS011;18062;48.872;9.220;2022-11-15T01:18:42;0.90;;;0.90;;
31438;SDS011;18062;48.872;9.220;2022-11-15T01:21:08;0.80;;;0.80;;
31438;SDS011;18062;48.872;9.220;2022-11-15T01:23:35;0.70;;;0.70;;
31438;SDS011;18062;48.872;9.220;2022-11-15T01:26:01;2.10;;;1.00;;
31438;SDS011;18062;48.872;9.220;2022-11-15T01:28:34;1.30;;;1.17;;
31438;SDS011;18062;48.872;9.220;2022-11-15T01:31:01;1.20;;;1.10;;
31438;SDS011;18062;48.872;9.220;2022-11-15T01:33:28;2.73;;;1.23;;
31438;SDS011;18062;48.872;9.220;2022-11-15T01:35:54;4.07;;;1.37;;
31438;SDS011;18062;48.872;9.220;2022-11-15T01:38:21;2.67;;;1.60;;
31438;SDS011;18062;48.872;9.220;2022-11-15T01:40:47;2.37;;;1.13;;
31438;SDS011;18062;48.872;9.220;2022-11-15T01:43:26;1.23;;;1.10;;
31438;SDS011;18062;48.872;9.220;2022-11-15T01:45:55;1.73;;;1.10;;
31438;SDS011;18062;48.872;9.220;2022-11-15T01:48:23;1.20;;;1.10;;
31438;SDS011;18062;48.872;9.220;2022-11-15T01:50:51;1.43;;;1.17;;
31438;SDS011;18062;48.872;9.220;2022-11-15T01:53:17;1.37;;;1.27;;
31438;SDS011;18062;48.872;9.220;2022-11-15T01:55:45;1.27;;;0.97;;
31438;SDS011;18062;48.872;9.220;2022-11-15T01:58:11;1.83;;;1.00;;
31438;SDS011;18062;48.872;9.220;2022-11-15T02:09:44;0.83;;;0.83;;
31438;SDS011;18062;48.872;9.220;2022-11-15T02:12:13;1.27;;;1.13;;
31438;SDS011;18062;48.872;9.220;2022-11-15T02:14:40;1.47;;;1.23;;
31438;SDS011;18062;48.872;9.220;2022-11-15T02:17:51;0.80;;;0.80;;
31438;SDS011;18062;48.872;9.220;2022-11-15T02:42:50;1.77;;;0.90;;
31438;SDS011;18062;48.872;9.220;2022-11-15T02:45:39;1.20;;;0.93;;
31438;SDS011;18062;48.872;9.220;2022-11-15T02:48:06;1.30;;;0.90;;
31438;SDS011;18062;48.872;9.220;2022-11-15T02:50:33;1.10;;;1.00;;
31438;SDS011;18062;48.872;9.220;2022-11-15T02:52:59;1.10;;;0.90;;
31438;SDS011;18062;48.872;9.220;2022-11-15T02:55:32;1.90;;;1.00;;
31438;SDS011;18062;48.872;9.220;2022-11-15T03:00:56;1.63;;;1.00;;
31438;SDS011;18062;48.872;9.220;2022-11-15T03:03:29;1.37;;;1.00;;
31438;SDS011;18062;48.872;9.220;2022-11-15T03:06:13;0.70;;;0.70;;
31438;SDS011;18062;48.872;9.220;2022-11-15T03:08:48;1.07;;;1.00;;
31438;SDS011;18062;48.872;9.220;2022-11-15T03:11:19;1.57;;;0.97;;
31438;SDS011;18062;48.872;9.220;2022-11-15T03:13:49;1.00;;;0.90;;
31438;SDS011;18062;48.872;9.220;2022-11-15T03:18:55;0.90;;;0.90;;
31438;SDS011;18062;48.872;9.220;2022-11-15T03:21:22;1.77;;;1.10;;
31438;SDS011;18062;48.872;9.220;2022-11-15T03:23:50;1.63;;;1.33;;
31438;SDS011;18062;48.872;9.220;2022-11-15T03:26:16;1.57;;;1.47;;
31438;SDS011;18062;48.872;9.220;2022-11-15T03:28:47;1.67;;;1.37;;
31438;SDS011;18062;48.872;9.220;2022-11-15T03:31:15;1.30;;;0.90;;
31438;SDS011;18062;48.872;9.220;2022-11-15T03:34:00;1.83;;;1.40;;
31438;SDS011;18062;48.872;9.220;2022-11-15T03:36:29;2.23;;;1.37;;
31438;SDS011;18062;48.872;9.220;2022-11-15T03:38:57;1.70;;;1.50;;
31438;SDS011;18062;48.872;9.220;2022-11-15T03:41:27;2.50;;;1.40;;
31438;SDS011;18062;48.872;9.220;2022-11-15T03:46:56;1.20;;;1.10;;
31438;SDS011;18062;48.872;9.220;2022-11-15T03:49:25;1.20;;;1.00;;
31438;SDS011;18062;48.872;9.220;2022-11-15T05:08:26;1.20;;;1.10;;
31438;SDS011;18062;48.872;9.220;2022-11-15T05:10:52;1.67;;;0.97;;
31438;SDS011;18062;48.872;9.220;2022-11-15T05:13:18;1.43;;;1.10;;
31438;SDS011;18062;48.872;9.220;2022-11-15T05:15:44;1.77;;;1.40;;
31438;SDS011;18062;48.872;9.220;2022-11-15T05:18:10;1.20;;;1.10;;
31438;SDS011;18062;48.872;9.220;2022-11-15T05:20:36;1.70;;;1.50;;
31438;SDS011;18062;48.872;9.220;2022-11-15T05:23:02;2.70;;;1.27;;
31438;SDS011;18062;48.872;9.220;2022-11-15T05:25:28;1.30;;;1.20;;
31438;SDS011;18062;48.872;9.220;2022-11-15T05:27:54;1.50;;;1.40;;
31438;SDS011;18062;48.872;9.220;2022-11-15T05:30:20;1.40;;;1.23;;
31438;SDS011;18062;48.872;9.220;2022-11-15T05:32:46;1.57;;;1.33;;
31438;SDS011;18062;48.872;9.220;2022-11-15T05:35:56;2.33;;;1.60;;
31438;SDS011;18062;48.872;9.220;2022-11-15T05:38:02;1.53;;;1.13;;
31438;SDS011;18062;48.872;9.220;2022-11-15T05:40:28;1.27;;;1.17;;
31438;SDS011;18062;48.872;9.220;2022-11-15T05:42:55;2.17;;;1.50;;
31438;SDS011;18062;48.872;9.220;2022-11-15T05:45:21;1.70;;;1.23;;
31438;SDS011;18062;48.872;9.220;2022-11-15T05:47:48;2.20;;;1.77;;
31438;SDS011;18062;48.872;9.220;2022-11-15T05:50:16;2.10;;;1.67;;
31438;SDS011;18062;48.872;9.220;2022-11-15T05:52:42;2.03;;;1.70;;
31438;SDS011;18062;48.872;9.220;2022-11-15T05:55:10;2.33;;;1.90;;
31438;SDS011;18062;48.872;9.220;2022-11-15T05:57:36;3.27;;;1.60;;
31438;SDS011;18062;48.872;9.220;2022-11-15T06:00:02;2.67;;;1.60;;
31438;SDS011;18062;48.872;9.220;2022-11-15T06:02:29;3.43;;;1.90;;
31438;SDS011;18062;48.872;9.220;2022-11-15T06:04:55;1.57;;;1.47;;
31438;SDS011;18062;48.872;9.220;2022-11-15T06:07:21;1.73;;;1.63;;
31438;SDS011;18062;48.872;9.220;2022-11-15T06:09:47;2.07;;;1.30;;
31438;SDS011;18062;48.872;9.220;2022-11-15T06:12:13;1.60;;;1.50;;
31438;SDS011;18062;48.872;9.220;2022-11-15T06:14:39;2.80;;;1.70;;
31438;SDS011;18062;48.872;9.220;2022-11-15T06:17:05;3.97;;;1.60;;
31438;SDS011;18062;48.872;9.220;2022-11-15T06:19:31;3.43;;;1.33;;
31438;SDS011;18062;48.872;9.220;2022-11-15T06:22:01;1.93;;;1.50;;
31438;SDS011;18062;48.872;9.220;2022-11-15T06:24:27;2.13;;;1.30;;
31438;SDS011;18062;48.872;9.220;2022-11-15T06:26:53;1.60;;;1.30;;
31438;SDS011;18062;48.872;9.220;2022-11-15T06:29:19;1.67;;;1.17;;
31438;SDS011;18062;48.872;9.220;2022-11-15T06:31:45;1.57;;;1.27;;
31438;SDS011;18062;48.872;9.220;2022-11-15T06:34:11;2.73;;;2.10;;
31438;SDS011;18062;48.872;9.220;2022-11-15T06:36:37;1.47;;;1.07;;
31438;SDS011;18062;48.872;9.220;2022-11-15T06:39:04;2.77;;;1.30;;
31438;SDS011;18062;48.872;9.220;2022-11-15T06:41:30;1.87;;;1.33;;
31438;SDS011;18062;48.872;9.220;2022-11-15T06:43:59;2.83;;;1.43;;
31438;SDS011;18062;48.872;9.220;2022-11-15T06:46:25;1.50;;;1.20;;
31438;SDS011;18062;48.872;9.220;2022-11-15T06:48:51;2.73;;;1.70;;
31438;SDS011;18062;48.872;9.220;2022-11-15T06:51:17;2.07;;;1.30;;
31438;SDS011;18062;48.872;9.220;2022-11-15T06:53:43;1.57;;;1.10;;
31438;SDS011;18062;48.872;9.220;2022-11-15T06:56:09;1.57;;;1.30;;
31438;SDS011;18062;48.872;9.220;2022-11-15T06:58:35;1.00;;;0.93;;
31438;SDS011;18062;48.872;9.220;2022-11-15T07:01:05;2.93;;;1.10;;
31438;SDS011;18062;48.872;9.220;2022-11-15T07:03:33;1.20;;;1.10;;
31438;SDS011;18062;48.872;9.220;2022-11-15T07:06:00;1.50;;;1.40;;
31438;SDS011;18062;48.872;9.220;2022-11-15T07:08:26;2.10;;;1.23;;
31438;SDS011;18062;48.872;9.220;2022-11-15T07:10:53;1.23;;;1.13;;
31438;SDS011;18062;48.872;9.220;2022-11-15T07:13:19;2.93;;;1.60;;
31438;SDS011;18062;48.872;9.220;2022-11-15T07:15:45;3.20;;;1.87;;
31438;SDS011;18062;48.872;9.220;2022-11-15T07:18:11;1.83;;;1.40;;
31438;SDS011;18062;48.872;9.220;2022-11-15T07:20:37;1.37;;;1.17;;
31438;SDS011;18062;48.872;9.220;2022-11-15T07:23:04;2.23;;;1.30;;
31438;SDS011;18062;48.872;9.220;2022-11-15T07:25:30;1.93;;;1.73;;
31438;SDS011;18062;48.872;9.220;2022-11-15T07:27:57;1.43;;;1.30;;
31438;SDS011;18062;48.872;9.220;2022-11-15T07:30:23;1.83;;;1.63;;
31438;SDS011;18062;48.872;9.220;2022-11-15T07:32:56;1.63;;;1.47;;
31438;SDS011;18062;48.872;9.220;2022-11-15T07:35:23;1.27;;;1.07;;
31438;SDS011;18062;48.872;9.220;2022-11-15T07:37:53;1.13;;;1.03;;
31438;SDS011;18062;48.872;9.220;2022-11-15T07:40:19;3.67;;;1.20;;
31438;SDS011;18062;48.872;9.220;2022-11-15T07:42:46;1.33;;;1.23;;
31438;SDS011;18062;48.872;9.220;2022-11-15T07:45:18;2.20;;;1.77;;
31438;SDS011;18062;48.872;9.220;2022-11-15T07:47:48;2.20;;;1.90;;
31438;SDS011;18062;48.872;9.220;2022-11-15T07:50:14;1.27;;;1.17;;
31438;SDS011;18062;48.872;9.220;2022-11-15T07:52:40;1.67;;;1.57;;
31438;SDS011;18062;48.872;9.220;2022-11-15T07:55:06;1.80;;;1.50;;
31438;SDS011;18062;48.872;9.220;2022-11-15T07:57:32;1.87;;;1.77;;
31438;SDS011;18062;48.872;9.220;2022-11-15T07:59:58;1.57;;;1.40;;
31438;SDS011;18062;48.872;9.220;2022-11-15T08:02:24;2.17;;;1.50;;
31438;SDS011;18062;48.872;9.220;2022-11-15T08:04:50;2.07;;;1.67;;
31438;SDS011;18062;48.872;9.220;2022-11-15T08:07:16;2.93;;;1.90;;
31438;SDS011;18062;48.872;9.220;2022-11-15T08:09:42;1.70;;;1.30;;
31438;SDS011;18062;48.872;9.220;2022-11-15T08:12:08;1.83;;;1.43;;
31438;SDS011;18062;48.872;9.220;2022-11-15T08:14:34;2.27;;;1.23;;
31438;SDS011;18062;48.872;9.220;2022-11-15T08:17:01;3.70;;;1.60;;
31438;SDS011;18062;48.872;9.220;2022-11-15T08:19:27;1.40;;;1.20;;
31438;SDS011;18062;48.872;9.220;2022-11-15T08:21:53;1.97;;;1.30;;
31438;SDS011;18062;48.872;9.220;2022-11-15T08:24:19;1.20;;;1.10;;
31438;SDS011;18062;48.872;9.220;2022-11-15T08:26:45;1.50;;;1.20;;
31438;SDS011;18062;48.872;9.220;2022-11-15T08:29:11;1.00;;;1.00;;
31438;SDS011;18062;48.872;9.220;2022-11-15T08:31:37;1.60;;;1.33;;
31438;SDS011;18062;48.872;9.220;2022-11-15T08:34:04;0.97;;;0.97;;
31438;SDS011;18062;48.872;9.220;2022-11-15T08:36:30;3.17;;;1.57;;
31438;SDS011;18062;48.872;9.220;2022-11-15T08:38:56;1.37;;;1.13;;
31438;SDS011;18062;48.872;9.220;2022-11-15T08:41:26;1.47;;;1.37;;
31438;SDS011;18062;48.872;9.220;2022-11-15T08:43:53;1.60;;;1.50;;
31438;SDS011;18062;48.872;9.220;2022-11-15T08:46:19;1.27;;;1.10;;
31438;SDS011;18062;48.872;9.220;2022-11-15T08:48:45;1.80;;;1.30;;
31438;SDS011;18062;48.872;9.220;2022-11-15T08:51:11;1.67;;;1.23;;
31438;SDS011;18062;48.872;9.220;2022-11-15T08:53:38;2.20;;;1.83;;
31438;SDS011;18062;48.872;9.220;2022-11-15T08:56:06;2.77;;;1.87;;
31438;SDS011;18062;48.872;9.220;2022-11-15T08:58:33;2.07;;;1.43;;
31438;SDS011;18062;48.872;9.220;2022-11-15T09:00:59;1.67;;;1.30;;
31438;SDS011;18062;48.872;9.220;2022-11-15T09:03:25;1.50;;;1.13;;
31438;SDS011;18062;48.872;9.220;2022-11-15T09:05:58;1.30;;;1.20;;
31438;SDS011;18062;48.872;9.220;2022-11-15T09:08:25;2.10;;;1.63;;
31438;SDS011;18062;48.872;9.220;2022-11-15T09:10:51;1.67;;;1.37;;
31438;SDS011;18062;48.872;9.220;2022-11-15T09:13:17;1.23;;;1.13;;
31438;SDS011;18062;48.872;9.220;2022-11-15T09:15:43;1.43;;;1.23;;
31438;SDS011;18062;48.872;9.220;2022-11-15T09:18:12;1.40;;;1.27;;
31438;SDS011;18062;48.872;9.220;2022-11-15T09:20:38;1.67;;;1.30;;
31438;SDS011;18062;48.872;9.220;2022-11-15T09:23:04;0.83;;;0.83;;
31438;SDS011;18062;48.872;9.220;2022-11-15T09:25:31;1.57;;;1.10;;
31438;SDS011;18062;48.872;9.220;2022-11-15T09:27:57;1.13;;;1.03;;
31438;SDS011;18062;48.872;9.220;2022-11-15T09:30:25;1.40;;;1.20;;
31438;SDS011;18062;48.872;9.220;2022-11-15T09:32:51;1.37;;;1.27;;
31438;SDS011;18062;48.872;9.220;2022-11-15T09:35:17;1.93;;;1.23;;
31438;SDS011;18062;48.872;9.220;2022-11-15T09:37:43;1.60;;;1.50;;
31438;SDS011;18062;48.872;9.220;2022-11-15T09:40:13;1.83;;;1.27;;
31438;SDS011;18062;48.872;9.220;2022-11-15T09:50:43;1.47;;;1.37;;
31438;SDS011;18062;48.872;9.220;2022-11-15T09:53:12;1.37;;;1.27;;
31438;SDS011;18062;48.872;9.220;2022-11-15T09:55:59;1.33;;;1.10;;
31438;SDS011;18062;48.872;9.220;2022-11-15T10:01:18;1.13;;;1.10;;
31438;SDS011;18062;48.872;9.220;2022-11-15T10:03:45;1.27;;;1.17;;
31438;SDS011;18062;48.872;9.220;2022-11-15T10:06:21;1.20;;;1.10;;
31438;SDS011;18062;48.872;9.220;2022-11-15T10:11:30;2.63;;;1.57;;
31438;SDS011;18062;48.872;9.220;2022-11-15T10:13:58;1.47;;;1.20;;
31438;SDS011;18062;48.872;9.220;2022-11-15T10:21:32;2.60;;;1.37;;
31438;SDS011;18062;48.872;9.220;2022-11-15T10:24:09;1.53;;;1.10;;
31438;SDS011;18062;48.872;9.220;2022-11-15T10:26:36;1.53;;;1.40;;
31438;SDS011;18062;48.872;9.220;2022-11-15T10:29:02;1.43;;;1.20;;
31438;SDS011;18062;48.872;9.220;2022-11-15T10:31:28;1.37;;;1.23;;
31438;SDS011;18062;48.872;9.220;2022-11-15T10:34:10;1.30;;;1.17;;
31438;SDS011;18062;48.872;9.220;2022-11-15T10:36:38;1.00;;;0.90;;
31438;SDS011;18062;48.872;9.220;2022-11-15T10:39:04;1.33;;;1.00;;
31438;SDS011;18062;48.872;9.220;2022-11-15T10:41:31;1.20;;;1.10;;
31438;SDS011;18062;48.872;9.220;2022-11-15T10:44:19;1.30;;;1.20;;
31438;SDS011;18062;48.872;9.220;2022-11-15T10:47:04;1.10;;;1.00;;
31438;SDS011;18062;48.872;9.220;2022-11-15T10:49:31;1.60;;;1.07;;
31438;SDS011;18062;48.872;9.220;2022-11-15T10:54:45;1.47;;;1.23;;
31438;SDS011;18062;48.872;9.220;2022-11-15T10:57:48;1.30;;;1.20;;
31438;SDS011;18062;48.872;9.220;2022-11-15T11:00:05;3.17;;;1.40;;
31438;SDS011;18062;48.872;9.220;2022-11-15T11:02:38;1.20;;;1.00;;
31438;SDS011;18062;48.872;9.220;2022-11-15T11:05:25;0.73;;;0.73;;
31438;SDS011;18062;48.872;9.220;2022-11-15T11:07:58;2.03;;;1.23;;
31438;SDS011;18062;48.872;9.220;2022-11-15T11:10:24;0.80;;;0.80;;
31438;SDS011;18062;48.872;9.220;2022-11-15T11:12:50;1.10;;;0.90;;
31438;SDS011;18062;48.872;9.220;2022-11-15T11:15:16;1.00;;;0.90;;
31438;SDS011;18062;48.872;9.220;2022-11-15T11:18:04;1.27;;;1.13;;
31438;SDS011;18062;48.872;9.220;2022-11-15T11:20:38;1.40;;;1.03;;
31438;SDS011;18062;48.872;9.220;2022-11-15T11:28:36;1.07;;;0.97;;
31438;SDS011;18062;48.872;9.220;2022-11-15T11:38:54;0.80;;;0.80;;
31438;SDS011;18062;48.872;9.220;2022-11-15T11:44:14;1.10;;;1.00;;
31438;SDS011;18062;48.872;9.220;2022-11-15T11:49:08;0.70;;;0.70;;
31438;SDS011;18062;48.872;9.220;2022-11-15T11:51:42;0.93;;;0.90;;
31438;SDS011;18062;48.872;9.220;2022-11-15T11:54:19;1.37;;;1.20;;
31438;SDS011;18062;48.872;9.220;2022-11-15T11:56:46;0.87;;;0.87;;
31438;SDS011;18062;48.872;9.220;2022-11-15T12:01:42;1.10;;;0.97;;
31438;SDS011;18062;48.872;9.220;2022-11-15T12:09:20;1.17;;;0.90;;
31438;SDS011;18062;48.872;9.220;2022-11-15T12:11:52;0.87;;;0.87;;
31438;SDS011;18062;48.872;9.220;2022-11-15T12:16:50;0.90;;;0.80;;
31438;SDS011;18062;48.872;9.220;2022-11-15T12:19:16;1.40;;;1.30;;
31438;SDS011;18062;48.872;9.220;2022-11-15T12:29:33;1.17;;;1.00;;
31438;SDS011;18062;48.872;9.220;2022-11-15T12:32:01;0.90;;;0.80;;
31438;SDS011;18062;48.872;9.220;2022-11-15T12:36:54;1.50;;;1.20;;
31438;SDS011;18062;48.872;9.220;2022-11-15T12:39:20;1.70;;;0.70;;
31438;SDS011;18062;48.872;9.220;2022-11-15T12:52:04;0.80;;;0.80;;
31438;SDS011;18062;48.872;9.220;2022-11-15T13:02:55;1.30;;;0.87;;
31438;SDS011;18062;48.872;9.220;2022-11-15T13:17:43;1.00;;;0.90;;
31438;SDS011;18062;48.872;9.220;2022-11-15T13:25:19;1.00;;;1.00;;
31438;SDS011;18062;48.872;9.220;2022-11-15T13:27:47;1.73;;;1.00;;
31438;SDS011;18062;48.872;9.220;2022-11-15T13:30:34;1.20;;;0.83;;
31438;SDS011;18062;48.872;9.220;2022-11-15T13:33:00;1.30;;;1.20;;
31438;SDS011;18062;48.872;9.220;2022-11-15T13:35:32;1.27;;;0.80;;
31438;SDS011;18062;48.872;9.220;2022-11-15T13:38:03;0.90;;;0.90;;
31438;SDS011;18062;48.872;9.220;2022-11-15T13:40:33;1.37;;;1.00;;
31438;SDS011;18062;48.872;9.220;2022-11-15T13:42:59;0.77;;;0.77;;
31438;SDS011;18062;48.872;9.220;2022-11-15T13:45:39;1.23;;;1.00;;
31438;SDS011;18062;48.872;9.220;2022-11-15T13:48:05;0.67;;;0.67;;
31438;SDS011;18062;48.872;9.220;2022-11-15T13:50:33;1.07;;;0.90;;
31438;SDS011;18062;48.872;9.220;2022-11-15T13:53:01;0.80;;;0.80;;
31438;SDS011;18062;48.872;9.220;2022-11-15T13:55:28;0.73;;;0.73;;
31438;SDS011;18062;48.872;9.220;2022-11-15T13:57:58;1.13;;;0.87;;
31438;SDS011;18062;48.872;9.220;2022-11-15T14:03:04;0.90;;;0.80;;
31438;SDS011;18062;48.872;9.220;2022-11-15T14:05:31;0.80;;;0.80;;
31438;SDS011;18062;48.872;9.220;2022-11-15T14:10:28;2.40;;;0.90;;
31438;SDS011;18062;48.872;9.220;2022-11-15T14:12:54;1.43;;;0.97;;
31438;SDS011;18062;48.872;9.220;2022-11-15T14:17:53;1.23;;;0.80;;
31438;SDS011;18062;48.872;9.220;2022-11-15T14:22:53;0.80;;;0.73;;
31438;SDS011;18062;48.872;9.220;2022-11-15T14:25:23;0.60;;;0.60;;
31438;SDS011;18062;48.872;9.220;2022-11-15T14:30:34;0.93;;;0.80;;
31438;SDS011;18062;48.872;9.220;2022-11-15T14:33:01;0.93;;;0.60;;
31438;SDS011;18062;48.872;9.220;2022-11-15T14:35:27;0.70;;;0.70;;
31438;SDS011;18062;48.872;9.220;2022-11-15T14:37:53;1.60;;;0.93;;
31438;SDS011;18062;48.872;9.220;2022-11-15T14:40:20;0.70;;;0.70;;
31438;SDS011;18062;48.872;9.220;2022-11-15T14:42:47;1.10;;;0.80;;
31438;SDS011;18062;48.872;9.220;2022-11-15T14:45:15;0.70;;;0.70;;
31438;SDS011;18062;48.872;9.220;2022-11-15T14:47:42;0.73;;;0.73;;
31438;SDS011;18062;48.872;9.220;2022-11-15T14:50:12;1.00;;;0.90;;
31438;SDS011;18062;48.872;9.220;2022-11-15T14:52:38;0.70;;;0.70;;
31438;SDS011;18062;48.872;9.220;2022-11-15T14:55:10;1.10;;;0.80;;
31438;SDS011;18062;48.872;9.220;2022-11-15T14:57:37;0.93;;;0.80;;
31438;SDS011;18062;48.872;9.220;2022-11-15T15:00:03;2.00;;;0.70;;
31438;SDS011;18062;48.872;9.220;2022-11-15T15:02:29;1.07;;;0.97;;
31438;SDS011;18062;48.872;9.220;2022-11-15T15:04:55;1.40;;;0.90;;
31438;SDS011;18062;48.872;9.220;2022-11-15T15:07:25;1.17;;;1.00;;
31438;SDS011;18062;48.872;9.220;2022-11-15T15:09:51;1.23;;;0.90;;
31438;SDS011;18062;48.872;9.220;2022-11-15T15:12:21;0.80;;;0.80;;
31438;SDS011;18062;48.872;9.220;2022-11-15T15:14:48;1.10;;;1.00;;
31438;SDS011;18062;48.872;9.220;2022-11-15T15:17:15;0.90;;;0.90;;
31438;SDS011;18062;48.872;9.220;2022-11-15T15:19:41;1.67;;;0.67;;
31438;SDS011;18062;48.872;9.220;2022-11-15T15:22:14;0.80;;;0.80;;
31438;SDS011;18062;48.872;9.220;2022-11-15T15:24:41;0.73;;;0.73;;
31438;SDS011;18062;48.872;9.220;2022-11-15T15:27:07;0.80;;;0.73;;
31438;SDS011;18062;48.872;9.220;2022-11-15T15:29:33;0.80;;;0.80;;
31438;SDS011;18062;48.872;9.220;2022-11-15T15:31:59;1.10;;;0.90;;
31438;SDS011;18062;48.872;9.220;2022-11-15T15:34:25;1.10;;;1.00;;
31438;SDS011;18062;48.872;9.220;2022-11-15T15:39:32;2.03;;;0.93;;
31438;SDS011;18062;48.872;9.220;2022-11-15T15:41:58;0.60;;;0.60;;
31438;SDS011;18062;48.872;9.220;2022-11-15T15:44:24;0.67;;;0.67;;
31438;SDS011;18062;48.872;9.220;2022-11-15T15:46:50;1.00;;;0.87;;
31438;SDS011;18062;48.872;9.220;2022-11-15T15:49:17;1.10;;;1.00;;
31438;SDS011;18062;48.872;9.220;2022-11-15T15:51:43;0.93;;;0.90;;
31438;SDS011;18062;48.872;9.220;2022-11-15T15:54:09;1.30;;;1.17;;
31438;SDS011;18062;48.872;9.220;2022-11-15T15:56:35;1.30;;;0.97;;
31438;SDS011;18062;48.872;9.220;2022-11-15T15:59:01;1.50;;;1.40;;
31438;SDS011;18062;48.872;9.220;2022-11-15T16:01:27;1.40;;;1.30;;
31438;SDS011;18062;48.872;9.220;2022-11-15T16:03:53;2.37;;;1.37;;
31438;SDS011;18062;48.872;9.220;2022-11-15T16:08:58;3.97;;;1.87;;
31438;SDS011;18062;48.872;9.220;2022-11-15T16:11:24;1.57;;;1.47;;
31438;SDS011;18062;48.872;9.220;2022-11-15T16:13:50;2.23;;;1.87;;
31438;SDS011;18062;48.872;9.220;2022-11-15T16:16:16;2.30;;;2.10;;
31438;SDS011;18062;48.872;9.220;2022-11-15T16:18:43;3.23;;;2.33;;
31438;SDS011;18062;48.872;9.220;2022-11-15T16:21:09;3.47;;;1.70;;
31438;SDS011;18062;48.872;9.220;2022-11-15T16:23:35;3.07;;;2.20;;
31438;SDS011;18062;48.872;9.220;2022-11-15T16:26:00;3.43;;;2.10;;
31438;SDS011;18062;48.872;9.220;2022-11-15T16:28:29;3.27;;;2.10;;
31438;SDS011;18062;48.872;9.220;2022-11-15T16:30:59;2.93;;;2.47;;
31438;SDS011;18062;48.872;9.220;2022-11-15T16:33:25;3.27;;;2.23;;
31438;SDS011;18062;48.872;9.220;2022-11-15T16:35:51;2.60;;;2.10;;
31438;SDS011;18062;48.872;9.220;2022-11-15T16:38:17;3.57;;;2.87;;
31438;SDS011;18062;48.872;9.220;2022-11-15T16:40:43;3.93;;;2.47;;
31438;SDS011;18062;48.872;9.220;2022-11-15T16:43:12;4.33;;;2.87;;
31438;SDS011;18062;48.872;9.220;2022-11-15T16:45:38;2.50;;;2.27;;
31438;SDS011;18062;48.872;9.220;2022-11-15T16:48:04;2.67;;;2.17;;
31438;SDS011;18062;48.872;9.220;2022-11-15T16:50:32;3.53;;;2.50;;
31438;SDS011;18062;48.872;9.220;2022-11-15T16:53:03;3.87;;;2.73;;
31438;SDS011;18062;48.872;9.220;2022-11-15T16:55:29;6.13;;;3.77;;
31438;SDS011;18062;48.872;9.220;2022-11-15T16:57:55;3.60;;;2.80;;
31438;SDS011;18062;48.872;9.220;2022-11-15T17:00:22;4.60;;;3.50;;
31438;SDS011;18062;48.872;9.220;2022-11-15T17:02:49;6.37;;;3.90;;
31438;SDS011;18062;48.872;9.220;2022-11-15T17:05:16;4.23;;;3.00;;
31438;SDS011;18062;48.872;9.220;2022-11-15T17:07:42;3.07;;;2.33;;
31438;SDS011;18062;48.872;9.220;2022-11-15T17:10:12;5.37;;;2.73;;
31438;SDS011;18062;48.872;9.220;2022-11-15T17:12:38;2.57;;;2.00;;
31438;SDS011;18062;48.872;9.220;2022-11-15T17:15:04;2.37;;;1.80;;
31438;SDS011;18062;48.872;9.220;2022-11-15T17:17:31;2.33;;;1.57;;
31438;SDS011;18062;48.872;9.220;2022-11-15T17:19:57;1.73;;;1.50;;
31438;SDS011;18062;48.872;9.220;2022-11-15T17:22:23;2.80;;;1.87;;
31438;SDS011;18062;48.872;9.220;2022-11-15T17:24:49;1.80;;;1.70;;
31438;SDS011;18062;48.872;9.220;2022-11-15T17:27:15;2.03;;;1.67;;
31438;SDS011;18062;48.872;9.220;2022-11-15T17:29:42;1.73;;;1.30;;
31438;SDS011;18062;48.872;9.220;2022-11-15T17:32:08;2.13;;;1.80;;
31438;SDS011;18062;48.872;9.220;2022-11-15T17:34:34;2.73;;;1.50;;
31438;SDS011;18062;48.872;9.220;2022-11-15T17:37:00;2.70;;;1.70;;
31438;SDS011;18062;48.872;9.220;2022-11-15T17:39:26;1.60;;;1.40;;
31438;SDS011;18062;48.872;9.220;2022-11-15T17:41:52;1.50;;;1.40;;
31438;SDS011;18062;48.872;9.220;2022-11-15T17:44:18;1.23;;;1.13;;
31438;SDS011;18062;48.872;9.220;2022-11-15T17:46:44;1.50;;;1.27;;
31438;SDS011;18062;48.872;9.220;2022-11-15T17:49:10;1.87;;;1.47;;
31438;SDS011;18062;48.872;9.220;2022-11-15T17:51:36;1.37;;;1.23;;
31438;SDS011;18062;48.872;9.220;2022-11-15T17:54:01;1.83;;;1.50;;
31438;SDS011;18062;48.872;9.220;2022-11-15T17:56:28;1.07;;;1.00;;
31438;SDS011;18062;48.872;9.220;2022-11-15T17:58:58;2.57;;;1.30;;
31438;SDS011;18062;48.872;9.220;2022-11-15T18:03:54;1.37;;;1.20;;
31438;SDS011;18062;48.872;9.220;2022-11-15T18:06:20;1.50;;;1.40;;
31438;SDS011;18062;48.872;9.220;2022-11-15T18:08:47;2.80;;;1.60;;
31438;SDS011;18062;48.872;9.220;2022-11-15T18:11:18;1.97;;;1.67;;
31438;SDS011;18062;48.872;9.220;2022-11-15T18:13:46;3.73;;;1.70;;
31438;SDS011;18062;48.872;9.220;2022-11-15T18:16:13;2.83;;;1.57;;
31438;SDS011;18062;48.872;9.220;2022-11-15T18:18:39;1.33;;;1.27;;
31438;SDS011;18062;48.872;9.220;2022-11-15T18:21:10;4.50;;;2.00;;
31438;SDS011;18062;48.872;9.220;2022-11-15T18:23:36;3.20;;;2.03;;
31438;SDS011;18062;48.872;9.220;2022-11-15T18:26:02;1.57;;;1.47;;
31438;SDS011;18062;48.872;9.220;2022-11-15T18:28:29;2.20;;;1.63;;
31438;SDS011;18062;48.872;9.220;2022-11-15T18:30:56;5.80;;;1.60;;
31438;SDS011;18062;48.872;9.220;2022-11-15T18:33:22;2.40;;;1.90;;
31438;SDS011;18062;48.872;9.220;2022-11-15T18:35:48;1.50;;;1.40;;
31438;SDS011;18062;48.872;9.220;2022-11-15T18:38:14;1.47;;;1.37;;
31438;SDS011;18062;48.872;9.220;2022-11-15T18:40:40;1.63;;;1.30;;
31438;SDS011;18062;48.872;9.220;2022-11-15T18:43:06;1.40;;;1.30;;
31438;SDS011;18062;48.872;9.220;2022-11-15T18:45:33;1.67;;;1.40;;
31438;SDS011;18062;48.872;9.220;2022-11-15T18:47:59;2.57;;;1.87;;
31438;SDS011;18062;48.872;9.220;2022-11-15T18:50:25;6.63;;;3.57;;